Hillsborough, California
Current Conditions -  °F | °C
As of 8:56 PM on Wednesday 22 Oct 2014 (Local Time) from KSFO Reporting Station
Broken Clouds Broken Clouds  
Wind Chill: 67°   Ceiling: 15000
Heat Index: 67°   Visibility: 10mi
Dew Point: 59°   Wind: 9mph
Humidity: 76%   Direction: 300°WNW
Pressure: 30.04"   Gusts: NA
Location:  37.58°N, 122.35°W
Report Text: KSFO 230356Z 30008KT 10SM FEW010 BKN150 19/15 A3004 RMK AO2 SLP174 T01940150 $
Loading
Personal Weather Stations






























Interactive Weather Map
Tropical Storm Tracking
New forecast layout! Learn more

10-Day Weather Forecast

Advertisements
Track Severe Weather on mobile